sensor_id;sensor_type;location;lat;lon;timestamp;temperature;humidity
4759;DHT22;2393;50.560;12.636;2024-01-06T00:02:09;2.70;99.90
4759;DHT22;2393;50.560;12.636;2024-01-06T00:04:39;2.70;99.90
4759;DHT22;2393;50.560;12.636;2024-01-06T00:07:09;2.70;99.90
4759;DHT22;2393;50.560;12.636;2024-01-06T00:09:39;2.60;99.90
4759;DHT22;2393;50.560;12.636;2024-01-06T00:12:09;2.60;99.90
4759;DHT22;2393;50.560;12.636;2024-01-06T00:14:38;2.60;99.90
4759;DHT22;2393;50.560;12.636;2024-01-06T00:17:11;2.60;99.90
4759;DHT22;2393;50.560;12.636;2024-01-06T00:19:43;2.50;99.90
4759;DHT22;2393;50.560;12.636;2024-01-06T00:22:12;2.50;99.90
4759;DHT22;2393;50.560;12.636;2024-01-06T00:24:46;2.50;99.90
4759;DHT22;2393;50.560;12.636;2024-01-06T00:27:15;2.40;99.90
4759;DHT22;2393;50.560;12.636;2024-01-06T00:29:45;2.40;99.90
4759;DHT22;2393;50.560;12.636;2024-01-06T00:32:16;2.40;99.90
4759;DHT22;2393;50.560;12.636;2024-01-06T00:34:45;2.30;99.90
4759;DHT22;2393;50.560;12.636;2024-01-06T00:37:15;2.30;99.90
4759;DHT22;2393;50.560;12.636;2024-01-06T00:39:46;2.30;99.90
4759;DHT22;2393;50.560;12.636;2024-01-06T00:42:15;2.30;99.90
4759;DHT22;2393;50.560;12.636;2024-01-06T00:44:45;2.30;99.90
4759;DHT22;2393;50.560;12.636;2024-01-06T00:47:14;2.20;99.90
4759;DHT22;2393;50.560;12.636;2024-01-06T00:49:43;2.20;99.90
4759;DHT22;2393;50.560;12.636;2024-01-06T00:52:14;2.10;99.90
4759;DHT22;2393;50.560;12.636;2024-01-06T00:54:45;2.10;99.90
4759;DHT22;2393;50.560;12.636;2024-01-06T00:57:15;2.10;99.90
4759;DHT22;2393;50.560;12.636;2024-01-06T00:59:44;2.10;99.90
4759;DHT22;2393;50.560;12.636;2024-01-06T01:02:13;2.00;99.90
4759;DHT22;2393;50.560;12.636;2024-01-06T01:04:45;1.90;99.90
4759;DHT22;2393;50.560;12.636;2024-01-06T01:07:15;1.90;99.90
4759;DHT22;2393;50.560;12.636;2024-01-06T01:09:48;1.80;99.90
4759;DHT22;2393;50.560;12.636;2024-01-06T01:12:18;1.80;99.90
4759;DHT22;2393;50.560;12.636;2024-01-06T01:14:47;1.80;99.90
4759;DHT22;2393;50.560;12.636;2024-01-06T01:17:17;1.70;99.90
4759;DHT22;2393;50.560;12.636;2024-01-06T01:19:49;1.70;99.90
4759;DHT22;2393;50.560;12.636;2024-01-06T01:22:19;1.60;99.90
4759;DHT22;2393;50.560;12.636;2024-01-06T01:24:50;1.60;99.90
4759;DHT22;2393;50.560;12.636;2024-01-06T01:27:21;1.60;99.90
4759;DHT22;2393;50.560;12.636;2024-01-06T01:29:50;1.60;99.90
4759;DHT22;2393;50.560;12.636;2024-01-06T01:32:22;1.60;99.90
4759;DHT22;2393;50.560;12.636;2024-01-06T01:34:52;1.60;99.90
4759;DHT22;2393;50.560;12.636;2024-01-06T01:37:22;1.60;99.90
4759;DHT22;2393;50.560;12.636;2024-01-06T01:39:53;1.60;99.90
4759;DHT22;2393;50.560;12.636;2024-01-06T01:42:23;1.60;99.90
4759;DHT22;2393;50.560;12.636;2024-01-06T01:44:55;1.60;99.90
4759;DHT22;2393;50.560;12.636;2024-01-06T01:47:24;1.60;99.90
4759;DHT22;2393;50.560;12.636;2024-01-06T01:49:55;1.60;99.90
4759;DHT22;2393;50.560;12.636;2024-01-06T01:52:24;1.60;99.90
4759;DHT22;2393;50.560;12.636;2024-01-06T01:54:57;1.50;99.90
4759;DHT22;2393;50.560;12.636;2024-01-06T01:57:27;1.60;99.90
4759;DHT22;2393;50.560;12.636;2024-01-06T01:59:57;1.60;99.90
4759;DHT22;2393;50.560;12.636;2024-01-06T02:02:27;1.50;99.90
4759;DHT22;2393;50.560;12.636;2024-01-06T02:04:58;1.50;99.90
4759;DHT22;2393;50.560;12.636;2024-01-06T02:07:27;1.50;99.90
4759;DHT22;2393;50.560;12.636;2024-01-06T02:09:58;1.50;99.90
4759;DHT22;2393;50.560;12.636;2024-01-06T02:12:29;1.50;99.90
4759;DHT22;2393;50.560;12.636;2024-01-06T02:14:59;1.50;99.90
4759;DHT22;2393;50.560;12.636;2024-01-06T02:17:28;1.50;99.90
4759;DHT22;2393;50.560;12.636;2024-01-06T02:19:57;1.50;99.90
4759;DHT22;2393;50.560;12.636;2024-01-06T02:22:29;1.50;99.90
4759;DHT22;2393;50.560;12.636;2024-01-06T02:24:58;1.50;99.90
4759;DHT22;2393;50.560;12.636;2024-01-06T02:27:27;1.50;99.90
4759;DHT22;2393;50.560;12.636;2024-01-06T02:29:57;1.50;99.90
4759;DHT22;2393;50.560;12.636;2024-01-06T02:32:26;1.50;99.90
4759;DHT22;2393;50.560;12.636;2024-01-06T02:34:56;1.50;99.90
4759;DHT22;2393;50.560;12.636;2024-01-06T02:37:26;1.60;99.90
4759;DHT22;2393;50.560;12.636;2024-01-06T02:39:57;1.60;99.90
4759;DHT22;2393;50.560;12.636;2024-01-06T02:42:27;1.60;99.90
4759;DHT22;2393;50.560;12.636;2024-01-06T02:44:57;1.60;99.90
4759;DHT22;2393;50.560;12.636;2024-01-06T02:47:26;1.60;99.90
4759;DHT22;2393;50.560;12.636;2024-01-06T02:49:56;1.60;99.90
4759;DHT22;2393;50.560;12.636;2024-01-06T02:52:25;1.60;99.90
4759;DHT22;2393;50.560;12.636;2024-01-06T02:54:54;1.60;99.90
4759;DHT22;2393;50.560;12.636;2024-01-06T02:57:25;1.60;99.90
4759;DHT22;2393;50.560;12.636;2024-01-06T02:59:56;1.60;99.90
4759;DHT22;2393;50.560;12.636;2024-01-06T03:02:26;1.50;99.90
4759;DHT22;2393;50.560;12.636;2024-01-06T03:04:55;1.50;99.90
4759;DHT22;2393;50.560;12.636;2024-01-06T03:07:25;1.50;99.90
4759;DHT22;2393;50.560;12.636;2024-01-06T03:09:54;1.40;99.90
4759;DHT22;2393;50.560;12.636;2024-01-06T03:12:25;1.40;99.90
4759;DHT22;2393;50.560;12.636;2024-01-06T03:14:56;1.50;99.90
4759;DHT22;2393;50.560;12.636;2024-01-06T03:17:25;1.50;99.90
4759;DHT22;2393;50.560;12.636;2024-01-06T03:19:56;1.50;99.90
4759;DHT22;2393;50.560;12.636;2024-01-06T03:22:26;1.50;99.90
4759;DHT22;2393;50.560;12.636;2024-01-06T03:24:56;1.50;99.90
4759;DHT22;2393;50.560;12.636;2024-01-06T03:27:26;1.50;99.90
4759;DHT22;2393;50.560;12.636;2024-01-06T03:29:55;1.60;99.90
4759;DHT22;2393;50.560;12.636;2024-01-06T03:32:24;1.60;99.90
4759;DHT22;2393;50.560;12.636;2024-01-06T03:34:55;1.60;99.90
4759;DHT22;2393;50.560;12.636;2024-01-06T03:37:25;1.70;99.90
4759;DHT22;2393;50.560;12.636;2024-01-06T03:39:55;1.70;99.90
4759;DHT22;2393;50.560;12.636;2024-01-06T03:42:26;1.70;99.90
4759;DHT22;2393;50.560;12.636;2024-01-06T03:44:54;1.70;99.90
4759;DHT22;2393;50.560;12.636;2024-01-06T03:47:25;1.70;99.90
4759;DHT22;2393;50.560;12.636;2024-01-06T03:49:54;1.70;99.90
4759;DHT22;2393;50.560;12.636;2024-01-06T03:52:24;1.70;99.90
4759;DHT22;2393;50.560;12.636;2024-01-06T03:54:53;1.70;99.90
4759;DHT22;2393;50.560;12.636;2024-01-06T03:57:25;1.70;99.90
4759;DHT22;2393;50.560;12.636;2024-01-06T03:59:55;1.70;99.90
4759;DHT22;2393;50.560;12.636;2024-01-06T04:02:26;1.70;99.90
4759;DHT22;2393;50.560;12.636;2024-01-06T04:04:55;1.60;99.90
4759;DHT22;2393;50.560;12.636;2024-01-06T04:07:27;1.60;99.90
4759;DHT22;2393;50.560;12.636;2024-01-06T04:09:56;1.60;99.90
4759;DHT22;2393;50.560;12.636;2024-01-06T04:12:27;1.70;99.90
4759;DHT22;2393;50.560;12.636;2024-01-06T04:14:56;1.70;99.90
4759;DHT22;2393;50.560;12.636;2024-01-06T04:17:26;1.70;99.90
4759;DHT22;2393;50.560;12.636;2024-01-06T04:19:55;1.60;99.90
4759;DHT22;2393;50.560;12.636;2024-01-06T04:22:27;1.60;99.90
4759;DHT22;2393;50.560;12.636;2024-01-06T04:24:57;1.60;99.90
4759;DHT22;2393;50.560;12.636;2024-01-06T04:27:29;1.60;99.90
4759;DHT22;2393;50.560;12.636;2024-01-06T04:30:01;1.60;99.90
4759;DHT22;2393;50.560;12.636;2024-01-06T04:32:31;1.50;99.90
4759;DHT22;2393;50.560;12.636;2024-01-06T04:35:01;1.50;99.90
4759;DHT22;2393;50.560;12.636;2024-01-06T04:37:30;1.50;99.90
4759;DHT22;2393;50.560;12.636;2024-01-06T04:40:00;1.50;99.90
4759;DHT22;2393;50.560;12.636;2024-01-06T04:42:31;1.50;99.90
4759;DHT22;2393;50.560;12.636;2024-01-06T04:45:01;1.50;99.90
4759;DHT22;2393;50.560;12.636;2024-01-06T04:47:31;1.50;99.90
4759;DHT22;2393;50.560;12.636;2024-01-06T04:49:59;1.50;99.90
4759;DHT22;2393;50.560;12.636;2024-01-06T04:52:29;1.50;99.90
4759;DHT22;2393;50.560;12.636;2024-01-06T04:54:59;1.50;99.90
4759;DHT22;2393;50.560;12.636;2024-01-06T04:57:29;1.50;99.90
4759;DHT22;2393;50.560;12.636;2024-01-06T04:59:59;1.50;99.90
4759;DHT22;2393;50.560;12.636;2024-01-06T05:02:28;1.50;99.90
4759;DHT22;2393;50.560;12.636;2024-01-06T05:04:59;1.50;99.90
4759;DHT22;2393;50.560;12.636;2024-01-06T05:07:30;1.50;99.90
4759;DHT22;2393;50.560;12.636;2024-01-06T05:09:59;1.50;99.90
4759;DHT22;2393;50.560;12.636;2024-01-06T05:12:30;1.50;99.90
4759;DHT22;2393;50.560;12.636;2024-01-06T05:15:00;1.40;99.90
4759;DHT22;2393;50.560;12.636;2024-01-06T05:17:30;1.40;99.90
4759;DHT22;2393;50.560;12.636;2024-01-06T05:19:59;1.40;99.90
4759;DHT22;2393;50.560;12.636;2024-01-06T05:22:28;1.40;99.90
4759;DHT22;2393;50.560;12.636;2024-01-06T05:24:57;1.40;99.90
4759;DHT22;2393;50.560;12.636;2024-01-06T05:27:26;1.30;99.90
4759;DHT22;2393;50.560;12.636;2024-01-06T05:29:55;1.30;99.90
4759;DHT22;2393;50.560;12.636;2024-01-06T05:32:26;1.30;99.90
4759;DHT22;2393;50.560;12.636;2024-01-06T05:34:55;1.20;99.90
4759;DHT22;2393;50.560;12.636;2024-01-06T05:37:24;1.20;99.90
4759;DHT22;2393;50.560;12.636;2024-01-06T05:39:55;1.20;99.90
4759;DHT22;2393;50.560;12.636;2024-01-06T05:42:30;1.20;99.90
4759;DHT22;2393;50.560;12.636;2024-01-06T05:44:59;1.20;99.90
4759;DHT22;2393;50.560;12.636;2024-01-06T05:47:30;1.10;99.90
4759;DHT22;2393;50.560;12.636;2024-01-06T05:50:00;1.10;99.90
4759;DHT22;2393;50.560;12.636;2024-01-06T05:52:29;1.10;99.90
4759;DHT22;2393;50.560;12.636;2024-01-06T05:54:58;1.10;99.90
4759;DHT22;2393;50.560;12.636;2024-01-06T05:57:31;1.10;99.90
4759;DHT22;2393;50.560;12.636;2024-01-06T06:00:00;1.10;99.90
4759;DHT22;2393;50.560;12.636;2024-01-06T06:02:40;1.10;99.90
4759;DHT22;2393;50.560;12.636;2024-01-06T06:05:10;1.10;99.90
4759;DHT22;2393;50.560;12.636;2024-01-06T06:07:38;1.10;99.90
4759;DHT22;2393;50.560;12.636;2024-01-06T06:10:10;1.20;99.90
4759;DHT22;2393;50.560;12.636;2024-01-06T06:12:40;1.20;99.90
4759;DHT22;2393;50.560;12.636;2024-01-06T06:15:09;1.20;99.90
4759;DHT22;2393;50.560;12.636;2024-01-06T06:17:40;1.20;99.90
4759;DHT22;2393;50.560;12.636;2024-01-06T06:20:10;1.20;99.90
4759;DHT22;2393;50.560;12.636;2024-01-06T06:22:39;1.20;99.90
4759;DHT22;2393;50.560;12.636;2024-01-06T06:25:09;1.20;99.90
4759;DHT22;2393;50.560;12.636;2024-01-06T06:27:38;1.20;99.90
4759;DHT22;2393;50.560;12.636;2024-01-06T06:30:09;1.20;99.90
4759;DHT22;2393;50.560;12.636;2024-01-06T06:32:37;1.20;99.90
4759;DHT22;2393;50.560;12.636;2024-01-06T06:35:09;1.20;99.90
4759;DHT22;2393;50.560;12.636;2024-01-06T06:37:38;1.10;99.90
4759;DHT22;2393;50.560;12.636;2024-01-06T06:40:08;1.20;99.90
4759;DHT22;2393;50.560;12.636;2024-01-06T06:42:37;1.10;99.90
4759;DHT22;2393;50.560;12.636;2024-01-06T06:45:08;1.10;99.90
4759;DHT22;2393;50.560;12.636;2024-01-06T06:47:39;1.20;99.90
4759;DHT22;2393;50.560;12.636;2024-01-06T06:50:10;1.10;99.90
4759;DHT22;2393;50.560;12.636;2024-01-06T06:52:39;1.10;99.90
4759;DHT22;2393;50.560;12.636;2024-01-06T06:55:10;1.10;99.90
4759;DHT22;2393;50.560;12.636;2024-01-06T06:57:39;1.10;99.90
4759;DHT22;2393;50.560;12.636;2024-01-06T07:00:09;1.10;99.90
4759;DHT22;2393;50.560;12.636;2024-01-06T07:02:39;1.10;99.90
4759;DHT22;2393;50.560;12.636;2024-01-06T07:05:09;1.00;99.90
4759;DHT22;2393;50.560;12.636;2024-01-06T07:07:38;1.00;99.90
4759;DHT22;2393;50.560;12.636;2024-01-06T07:10:08;1.00;99.90
4759;DHT22;2393;50.560;12.636;2024-01-06T07:12:37;1.00;99.90
4759;DHT22;2393;50.560;12.636;2024-01-06T07:15:06;1.00;99.90
4759;DHT22;2393;50.560;12.636;2024-01-06T07:17:38;1.00;99.90
4759;DHT22;2393;50.560;12.636;2024-01-06T07:20:08;0.90;99.90
4759;DHT22;2393;50.560;12.636;2024-01-06T07:22:38;0.90;99.90
4759;DHT22;2393;50.560;12.636;2024-01-06T07:25:08;0.90;99.90
4759;DHT22;2393;50.560;12.636;2024-01-06T07:27:39;0.90;99.90
4759;DHT22;2393;50.560;12.636;2024-01-06T07:30:09;0.90;99.90
4759;DHT22;2393;50.560;12.636;2024-01-06T07:32:38;0.90;99.90
4759;DHT22;2393;50.560;12.636;2024-01-06T07:35:08;0.80;99.90
4759;DHT22;2393;50.560;12.636;2024-01-06T07:37:38;0.80;99.90
4759;DHT22;2393;50.560;12.636;2024-01-06T07:40:10;0.80;99.90
4759;DHT22;2393;50.560;12.636;2024-01-06T07:42:40;0.80;99.90
4759;DHT22;2393;50.560;12.636;2024-01-06T07:45:09;0.70;99.90
4759;DHT22;2393;50.560;12.636;2024-01-06T07:47:38;0.70;99.90
4759;DHT22;2393;50.560;12.636;2024-01-06T07:50:09;0.70;99.90
4759;DHT22;2393;50.560;12.636;2024-01-06T07:52:39;0.70;99.90
4759;DHT22;2393;50.560;12.636;2024-01-06T07:55:09;0.70;99.90
4759;DHT22;2393;50.560;12.636;2024-01-06T07:57:39;0.70;99.90
4759;DHT22;2393;50.560;12.636;2024-01-06T08:00:09;0.60;99.90
4759;DHT22;2393;50.560;12.636;2024-01-06T08:02:44;0.60;99.90
4759;DHT22;2393;50.560;12.636;2024-01-06T08:05:13;0.60;99.90
4759;DHT22;2393;50.560;12.636;2024-01-06T08:07:44;0.60;99.90
4759;DHT22;2393;50.560;12.636;2024-01-06T08:10:14;0.70;99.90
4759;DHT22;2393;50.560;12.636;2024-01-06T08:12:43;0.70;99.90
4759;DHT22;2393;50.560;12.636;2024-01-06T08:15:12;0.70;99.90
4759;DHT22;2393;50.560;12.636;2024-01-06T08:17:42;0.70;99.90
4759;DHT22;2393;50.560;12.636;2024-01-06T08:20:14;0.80;99.90
4759;DHT22;2393;50.560;12.636;2024-01-06T08:22:45;0.90;99.90
4759;DHT22;2393;50.560;12.636;2024-01-06T08:25:14;1.00;99.90
4759;DHT22;2393;50.560;12.636;2024-01-06T08:27:45;1.10;99.90
4759;DHT22;2393;50.560;12.636;2024-01-06T08:30:14;1.20;99.90
4759;DHT22;2393;50.560;12.636;2024-01-06T08:32:43;1.30;99.90
4759;DHT22;2393;50.560;12.636;2024-01-06T08:35:13;1.40;99.90
4759;DHT22;2393;50.560;12.636;2024-01-06T08:37:45;1.70;99.90
4759;DHT22;2393;50.560;12.636;2024-01-06T08:40:14;2.00;99.90
4759;DHT22;2393;50.560;12.636;2024-01-06T08:42:44;2.20;99.90
4759;DHT22;2393;50.560;12.636;2024-01-06T08:45:13;2.30;99.90
4759;DHT22;2393;50.560;12.636;2024-01-06T08:47:42;2.40;99.90
4759;DHT22;2393;50.560;12.636;2024-01-06T08:50:11;2.60;99.90
4759;DHT22;2393;50.560;12.636;2024-01-06T08:52:41;2.70;99.90
4759;DHT22;2393;50.560;12.636;2024-01-06T08:55:12;2.80;99.90
4759;DHT22;2393;50.560;12.636;2024-01-06T08:57:42;2.90;99.90
4759;DHT22;2393;50.560;12.636;2024-01-06T09:00:12;3.00;99.90
4759;DHT22;2393;50.560;12.636;2024-01-06T09:02:44;3.20;99.90
4759;DHT22;2393;50.560;12.636;2024-01-06T09:05:14;3.30;99.90
4759;DHT22;2393;50.560;12.636;2024-01-06T09:07:44;3.40;99.90
4759;DHT22;2393;50.560;12.636;2024-01-06T09:10:23;3.60;99.90
4759;DHT22;2393;50.560;12.636;2024-01-06T09:12:52;3.90;99.90
4759;DHT22;2393;50.560;12.636;2024-01-06T09:15:21;4.20;99.90
4759;DHT22;2393;50.560;12.636;2024-01-06T09:17:50;4.50;99.90
4759;DHT22;2393;50.560;12.636;2024-01-06T09:20:19;4.70;99.90
4759;DHT22;2393;50.560;12.636;2024-01-06T09:22:50;4.90;99.90
4759;DHT22;2393;50.560;12.636;2024-01-06T09:25:19;5.10;99.90
4759;DHT22;2393;50.560;12.636;2024-01-06T09:27:53;5.20;99.90
4759;DHT22;2393;50.560;12.636;2024-01-06T09:30:22;5.20;99.90
4759;DHT22;2393;50.560;12.636;2024-01-06T09:32:52;5.30;99.90
4759;DHT22;2393;50.560;12.636;2024-01-06T09:35:21;5.30;99.90
4759;DHT22;2393;50.560;12.636;2024-01-06T09:37:51;5.40;99.90
4759;DHT22;2393;50.560;12.636;2024-01-06T09:40:22;5.30;99.90
4759;DHT22;2393;50.560;12.636;2024-01-06T09:42:52;5.40;99.90
4759;DHT22;2393;50.560;12.636;2024-01-06T09:45:22;5.30;99.90
4759;DHT22;2393;50.560;12.636;2024-01-06T09:47:52;5.40;99.90
4759;DHT22;2393;50.560;12.636;2024-01-06T09:50:24;5.40;99.90
4759;DHT22;2393;50.560;12.636;2024-01-06T09:52:54;5.40;99.90
4759;DHT22;2393;50.560;12.636;2024-01-06T09:55:33;5.40;99.90
4759;DHT22;2393;50.560;12.636;2024-01-06T09:58:08;5.40;99.90
4759;DHT22;2393;50.560;12.636;2024-01-06T10:00:38;5.40;99.90
4759;DHT22;2393;50.560;12.636;2024-01-06T10:03:07;5.40;99.90
4759;DHT22;2393;50.560;12.636;2024-01-06T10:05:37;5.40;99.90
4759;DHT22;2393;50.560;12.636;2024-01-06T10:08:11;5.40;99.90
4759;DHT22;2393;50.560;12.636;2024-01-06T10:10:42;5.40;99.90
4759;DHT22;2393;50.560;12.636;2024-01-06T10:13:16;5.40;99.90
4759;DHT22;2393;50.560;12.636;2024-01-06T10:15:47;5.30;99.90
4759;DHT22;2393;50.560;12.636;2024-01-06T10:18:16;5.30;99.90
4759;DHT22;2393;50.560;12.636;2024-01-06T10:20:46;5.20;99.90
4759;DHT22;2393;50.560;12.636;2024-01-06T10:23:16;5.20;99.90
4759;DHT22;2393;50.560;12.636;2024-01-06T10:25:46;5.20;99.90
4759;DHT22;2393;50.560;12.636;2024-01-06T10:28:20;5.20;99.90
4759;DHT22;2393;50.560;12.636;2024-01-06T10:30:51;5.10;99.90
4759;DHT22;2393;50.560;12.636;2024-01-06T10:33:23;5.10;99.90
4759;DHT22;2393;50.560;12.636;2024-01-06T10:35:53;5.10;99.90
4759;DHT22;2393;50.560;12.636;2024-01-06T10:38:26;5.20;99.90
4759;DHT22;2393;50.560;12.636;2024-01-06T10:41:00;5.20;99.90
4759;DHT22;2393;50.560;12.636;2024-01-06T10:43:32;5.20;99.90
4759;DHT22;2393;50.560;12.636;2024-01-06T10:46:06;5.30;99.90
4759;DHT22;2393;50.560;12.636;2024-01-06T10:48:39;5.20;99.90
4759;DHT22;2393;50.560;12.636;2024-01-06T10:51:12;5.30;99.90
4759;DHT22;2393;50.560;12.636;2024-01-06T10:53:43;5.30;99.90
4759;DHT22;2393;50.560;12.636;2024-01-06T10:56:16;5.40;99.90
4759;DHT22;2393;50.560;12.636;2024-01-06T10:58:47;5.40;99.90
4759;DHT22;2393;50.560;12.636;2024-01-06T11:01:21;5.40;99.90
4759;DHT22;2393;50.560;12.636;2024-01-06T11:03:57;5.40;99.90
4759;DHT22;2393;50.560;12.636;2024-01-06T11:06:29;5.40;99.90
4759;DHT22;2393;50.560;12.636;2024-01-06T11:09:06;5.50;99.90
4759;DHT22;2393;50.560;12.636;2024-01-06T11:11:39;5.50;99.90
4759;DHT22;2393;50.560;12.636;2024-01-06T11:14:22;5.50;99.90
4759;DHT22;2393;50.560;12.636;2024-01-06T11:16:53;5.50;99.90
4759;DHT22;2393;50.560;12.636;2024-01-06T11:19:53;5.50;99.90
4759;DHT22;2393;50.560;12.636;2024-01-06T11:22:34;5.50;99.90
4759;DHT22;2393;50.560;12.636;2024-01-06T11:25:13;5.50;99.90
4759;DHT22;2393;50.560;12.636;2024-01-06T11:27:50;5.50;99.90
4759;DHT22;2393;50.560;12.636;2024-01-06T11:30:27;5.50;99.90
4759;DHT22;2393;50.560;12.636;2024-01-06T11:32:56;5.50;99.90
4759;DHT22;2393;50.560;12.636;2024-01-06T11:35:30;5.50;99.90
4759;DHT22;2393;50.560;12.636;2024-01-06T11:38:02;5.50;99.90
4759;DHT22;2393;50.560;12.636;2024-01-06T11:40:33;5.50;99.90
4759;DHT22;2393;50.560;12.636;2024-01-06T11:43:05;5.50;99.90
4759;DHT22;2393;50.560;12.636;2024-01-06T11:45:40;5.50;99.90
4759;DHT22;2393;50.560;12.636;2024-01-06T11:48:10;5.50;99.90
4759;DHT22;2393;50.560;12.636;2024-01-06T11:50:41;5.50;99.90
4759;DHT22;2393;50.560;12.636;2024-01-06T11:53:09;5.50;99.90
4759;DHT22;2393;50.560;12.636;2024-01-06T11:55:39;5.50;99.90
4759;DHT22;2393;50.560;12.636;2024-01-06T11:58:09;5.50;99.90
4759;DHT22;2393;50.560;12.636;2024-01-06T12:00:44;5.50;99.90
4759;DHT22;2393;50.560;12.636;2024-01-06T12:03:16;5.50;99.90
4759;DHT22;2393;50.560;12.636;2024-01-06T12:05:59;5.50;99.90
4759;DHT22;2393;50.560;12.636;2024-01-06T12:08:29;5.50;99.90
4759;DHT22;2393;50.560;12.636;2024-01-06T12:11:05;5.50;99.90
4759;DHT22;2393;50.560;12.636;2024-01-06T12:13:36;5.50;99.90
4759;DHT22;2393;50.560;12.636;2024-01-06T12:16:07;5.50;99.90
4759;DHT22;2393;50.560;12.636;2024-01-06T12:18:37;5.50;99.90
4759;DHT22;2393;50.560;12.636;2024-01-06T12:21:09;5.50;99.90
4759;DHT22;2393;50.560;12.636;2024-01-06T12:23:40;5.60;99.90
4759;DHT22;2393;50.560;12.636;2024-01-06T12:26:10;5.60;99.90
4759;DHT22;2393;50.560;12.636;2024-01-06T12:28:40;5.60;99.90
4759;DHT22;2393;50.560;12.636;2024-01-06T12:31:14;5.60;99.90
4759;DHT22;2393;50.560;12.636;2024-01-06T12:33:45;5.60;99.90
4759;DHT22;2393;50.560;12.636;2024-01-06T12:36:15;5.70;99.90
4759;DHT22;2393;50.560;12.636;2024-01-06T12:38:54;5.70;99.90
4759;DHT22;2393;50.560;12.636;2024-01-06T12:41:25;5.70;99.90
4759;DHT22;2393;50.560;12.636;2024-01-06T12:43:58;5.60;99.90
4759;DHT22;2393;50.560;12.636;2024-01-06T12:46:29;5.60;99.90
4759;DHT22;2393;50.560;12.636;2024-01-06T12:49:00;5.60;99.90
4759;DHT22;2393;50.560;12.636;2024-01-06T12:51:30;5.60;99.90
4759;DHT22;2393;50.560;12.636;2024-01-06T12:53:59;5.60;99.90
4759;DHT22;2393;50.560;12.636;2024-01-06T12:56:30;5.60;99.90
4759;DHT22;2393;50.560;12.636;2024-01-06T12:59:01;5.60;99.90
4759;DHT22;2393;50.560;12.636;2024-01-06T13:01:32;5.60;99.90
4759;DHT22;2393;50.560;12.636;2024-01-06T13:04:02;5.50;99.90
4759;DHT22;2393;50.560;12.636;2024-01-06T13:06:31;5.60;99.90
4759;DHT22;2393;50.560;12.636;2024-01-06T13:09:01;5.50;99.90
4759;DHT22;2393;50.560;12.636;2024-01-06T13:11:34;5.50;99.90
4759;DHT22;2393;50.560;12.636;2024-01-06T13:14:04;5.50;99.90
4759;DHT22;2393;50.560;12.636;2024-01-06T13:16:36;5.60;99.90
4759;DHT22;2393;50.560;12.636;2024-01-06T13:19:05;5.50;99.90
4759;DHT22;2393;50.560;12.636;2024-01-06T13:21:34;5.60;99.90
4759;DHT22;2393;50.560;12.636;2024-01-06T13:24:06;5.60;99.90
4759;DHT22;2393;50.560;12.636;2024-01-06T13:26:38;5.50;99.90
4759;DHT22;2393;50.560;12.636;2024-01-06T13:29:07;5.50;99.90
4759;DHT22;2393;50.560;12.636;2024-01-06T13:31:38;5.50;99.90
4759;DHT22;2393;50.560;12.636;2024-01-06T13:34:08;5.50;99.90
4759;DHT22;2393;50.560;12.636;2024-01-06T13:36:37;5.50;99.90
4759;DHT22;2393;50.560;12.636;2024-01-06T13:39:07;5.50;99.90
4759;DHT22;2393;50.560;12.636;2024-01-06T13:41:36;5.50;99.90
4759;DHT22;2393;50.560;12.636;2024-01-06T13:44:06;5.30;99.90
4759;DHT22;2393;50.560;12.636;2024-01-06T13:46:37;5.30;99.90
4759;DHT22;2393;50.560;12.636;2024-01-06T13:49:06;5.30;99.90
4759;DHT22;2393;50.560;12.636;2024-01-06T13:51:37;5.30;99.90
4759;DHT22;2393;50.560;12.636;2024-01-06T13:54:08;5.30;99.90
4759;DHT22;2393;50.560;12.636;2024-01-06T13:56:37;5.30;99.90
4759;DHT22;2393;50.560;12.636;2024-01-06T13:59:06;5.40;99.90
4759;DHT22;2393;50.560;12.636;2024-01-06T14:01:37;5.40;99.90
4759;DHT22;2393;50.560;12.636;2024-01-06T14:04:06;5.40;99.90
4759;DHT22;2393;50.560;12.636;2024-01-06T14:06:37;5.40;99.90
4759;DHT22;2393;50.560;12.636;2024-01-06T14:09:07;5.40;99.90
4759;DHT22;2393;50.560;12.636;2024-01-06T14:11:36;5.40;99.90
4759;DHT22;2393;50.560;12.636;2024-01-06T14:14:05;5.40;99.90
4759;DHT22;2393;50.560;12.636;2024-01-06T14:16:36;5.40;99.90
4759;DHT22;2393;50.560;12.636;2024-01-06T14:19:05;5.40;99.90
4759;DHT22;2393;50.560;12.636;2024-01-06T14:21:34;5.40;99.90
4759;DHT22;2393;50.560;12.636;2024-01-06T14:24:05;5.40;99.90
4759;DHT22;2393;50.560;12.636;2024-01-06T14:26:34;5.40;99.90
4759;DHT22;2393;50.560;12.636;2024-01-06T14:29:04;5.40;99.90
4759;DHT22;2393;50.560;12.636;2024-01-06T14:31:33;5.40;99.90
4759;DHT22;2393;50.560;12.636;2024-01-06T14:34:05;5.40;99.90
4759;DHT22;2393;50.560;12.636;2024-01-06T14:36:34;5.30;99.90
4759;DHT22;2393;50.560;12.636;2024-01-06T14:39:03;5.30;99.90
4759;DHT22;2393;50.560;12.636;2024-01-06T14:41:34;5.30;99.90
4759;DHT22;2393;50.560;12.636;2024-01-06T14:44:05;5.30;99.90
4759;DHT22;2393;50.560;12.636;2024-01-06T14:46:35;5.30;99.90
4759;DHT22;2393;50.560;12.636;2024-01-06T14:49:06;5.30;99.90
4759;DHT22;2393;50.560;12.636;2024-01-06T14:51:35;5.30;99.90
4759;DHT22;2393;50.560;12.636;2024-01-06T14:54:05;5.30;99.90
4759;DHT22;2393;50.560;12.636;2024-01-06T14:56:39;5.30;99.90
4759;DHT22;2393;50.560;12.636;2024-01-06T14:59:08;5.20;99.90
4759;DHT22;2393;50.560;12.636;2024-01-06T15:01:41;5.20;99.90
4759;DHT22;2393;50.560;12.636;2024-01-06T15:04:12;5.20;99.90
4759;DHT22;2393;50.560;12.636;2024-01-06T15:06:43;5.20;99.90
4759;DHT22;2393;50.560;12.636;2024-01-06T15:09:12;5.10;99.90
4759;DHT22;2393;50.560;12.636;2024-01-06T15:11:45;5.00;99.90
4759;DHT22;2393;50.560;12.636;2024-01-06T15:14:16;5.00;99.90
4759;DHT22;2393;50.560;12.636;2024-01-06T15:16:46;5.00;99.90
4759;DHT22;2393;50.560;12.636;2024-01-06T15:19:17;5.00;99.90
4759;DHT22;2393;50.560;12.636;2024-01-06T15:21:45;5.00;99.90
4759;DHT22;2393;50.560;12.636;2024-01-06T15:24:17;4.90;99.90
4759;DHT22;2393;50.560;12.636;2024-01-06T15:26:46;4.90;99.90
4759;DHT22;2393;50.560;12.636;2024-01-06T15:29:15;4.90;99.90
4759;DHT22;2393;50.560;12.636;2024-01-06T15:31:44;4.90;99.90
4759;DHT22;2393;50.560;12.636;2024-01-06T15:34:14;4.90;99.90
4759;DHT22;2393;50.560;12.636;2024-01-06T15:36:44;4.80;99.90
4759;DHT22;2393;50.560;12.636;2024-01-06T15:39:15;4.90;99.90
4759;DHT22;2393;50.560;12.636;2024-01-06T15:41:43;4.80;99.90
4759;DHT22;2393;50.560;12.636;2024-01-06T15:44:16;4.80;99.90
4759;DHT22;2393;50.560;12.636;2024-01-06T15:46:45;4.70;99.90
4759;DHT22;2393;50.560;12.636;2024-01-06T15:49:15;4.70;99.90
4759;DHT22;2393;50.560;12.636;2024-01-06T15:51:45;4.70;99.90
4759;DHT22;2393;50.560;12.636;2024-01-06T15:54:14;4.70;99.90
4759;DHT22;2393;50.560;12.636;2024-01-06T15:56:43;4.70;99.90
4759;DHT22;2393;50.560;12.636;2024-01-06T15:59:12;4.70;99.90
4759;DHT22;2393;50.560;12.636;2024-01-06T16:01:42;4.70;99.90
4759;DHT22;2393;50.560;12.636;2024-01-06T16:04:11;4.70;99.90
4759;DHT22;2393;50.560;12.636;2024-01-06T16:06:40;4.60;99.90
4759;DHT22;2393;50.560;12.636;2024-01-06T16:09:11;4.60;99.90
4759;DHT22;2393;50.560;12.636;2024-01-06T16:11:41;4.60;99.90
4759;DHT22;2393;50.560;12.636;2024-01-06T16:14:10;4.60;99.90
4759;DHT22;2393;50.560;12.636;2024-01-06T16:16:38;4.60;99.90
4759;DHT22;2393;50.560;12.636;2024-01-06T16:19:08;4.60;99.90
4759;DHT22;2393;50.560;12.636;2024-01-06T16:21:40;4.60;99.90
4759;DHT22;2393;50.560;12.636;2024-01-06T16:24:12;4.60;99.90